createdAt,value
2019-03-20T00:01:31.049Z,101963.00
2019-03-20T00:04:02.765Z,101968.66
2019-03-20T00:06:34.355Z,101967.77
2019-03-20T00:09:08.317Z,101971.48
2019-03-20T00:11:39.766Z,101970.00
2019-03-20T00:14:11.719Z,101971.60
2019-03-20T00:16:42.462Z,101973.22
2019-03-20T00:19:14.073Z,101976.94
2019-03-20T00:21:45.789Z,101967.20
2019-03-20T00:24:16.492Z,101974.34
2019-03-20T00:26:48.308Z,101964.12
2019-03-20T00:29:20.296Z,101964.12
2019-03-20T00:31:52.417Z,101967.36
2019-03-20T00:34:24.065Z,101965.02
2019-03-20T00:36:55.738Z,101958.13
2019-03-20T00:39:27.784Z,101957.98
2019-03-20T00:41:58.490Z,101962.31
2019-03-20T00:44:30.262Z,101967.47
2019-03-20T00:47:01.800Z,101966.77
2019-03-20T00:49:32.556Z,101961.82
2019-03-20T00:52:04.328Z,101967.73
2019-03-20T00:54:35.917Z,101967.73
2019-03-20T00:57:07.748Z,101968.70
2019-03-20T00:59:38.507Z,101964.39
2019-03-20T01:02:10.737Z,101967.58
2019-03-20T01:04:41.506Z,101955.11
2019-03-20T01:07:13.313Z,101954.87
2019-03-20T01:09:44.833Z,101963.89
2019-03-20T01:12:17.752Z,101960.20
2019-03-20T01:14:49.760Z,101964.52
2019-03-20T01:17:20.789Z,101956.61
2019-03-20T01:19:52.637Z,101956.13
2019-03-20T01:22:24.343Z,101950.73
2019-03-20T01:24:56.000Z,101950.73
2019-03-20T01:27:27.782Z,101963.17
2019-03-20T01:29:59.764Z,101955.13
2019-03-20T01:32:31.429Z,101956.13
2019-03-20T01:35:03.608Z,101959.58
2019-03-20T01:37:35.438Z,101964.30
2019-03-20T01:40:07.439Z,101960.46
2019-03-20T01:42:39.080Z,101963.64
2019-03-20T01:45:11.697Z,101962.17
2019-03-20T01:47:43.829Z,101965.64
2019-03-20T01:50:15.510Z,101963.17
2019-03-20T01:52:47.075Z,101961.58
2019-03-20T01:55:18.772Z,101960.93
2019-03-20T01:57:49.619Z,101965.89
2019-03-20T02:00:21.359Z,101956.79
2019-03-20T02:02:53.404Z,101956.79
2019-03-20T02:05:35.210Z,101967.38
2019-03-20T02:07:58.601Z,101968.73
2019-03-20T02:10:30.338Z,101968.61
2019-03-20T02:13:02.317Z,101968.61
2019-03-20T02:15:39.118Z,101973.30
2019-03-20T02:18:08.757Z,101975.39
2019-03-20T02:20:39.482Z,101971.94
2019-03-20T02:23:11.074Z,101975.03
2019-03-20T02:25:42.789Z,101972.45
2019-03-20T02:28:13.783Z,101979.23
2019-03-20T02:30:45.394Z,101978.97
2019-03-20T02:33:17.075Z,101981.42
2019-03-20T02:35:51.935Z,101982.30
2019-03-20T02:38:23.336Z,101980.55
2019-03-20T02:40:55.053Z,101987.49
2019-03-20T02:43:26.765Z,101982.19
2019-03-20T02:45:58.754Z,101982.30
2019-03-20T02:48:29.939Z,101980.84
2019-03-20T02:51:01.817Z,101977.64
2019-03-20T02:53:33.773Z,101978.26
2019-03-20T02:56:05.681Z,101990.20
2019-03-20T02:58:36.759Z,101993.17
2019-03-20T03:01:07.627Z,101993.67
2019-03-20T03:03:39.334Z,101985.53
2019-03-20T03:06:11.063Z,101985.53
2019-03-20T03:08:42.756Z,101995.77
2019-03-20T03:11:13.597Z,101999.22
2019-03-20T03:13:45.343Z,101991.20
2019-03-20T03:16:17.064Z,101991.20
2019-03-20T03:18:48.742Z,102000.94
2019-03-20T03:21:19.443Z,102001.69
2019-03-20T03:23:51.074Z,102001.56
2019-03-20T03:26:22.784Z,102002.18
2019-03-20T03:28:53.477Z,102004.41
2019-03-20T03:31:25.041Z,101998.98
2019-03-20T03:33:57.039Z,101996.88
2019-03-20T03:36:28.757Z,101998.71
2019-03-20T03:38:59.456Z,102002.17
2019-03-20T03:41:31.320Z,102001.91
2019-03-20T03:44:03.354Z,102008.84
2019-03-20T03:46:35.001Z,102008.34
2019-03-20T03:49:06.755Z,102016.72
2019-03-20T03:51:38.388Z,102022.73
2019-03-20T03:54:10.761Z,102015.97
2019-03-20T03:56:41.465Z,102013.02
2019-03-20T03:59:13.782Z,102020.89
2019-03-20T04:01:45.916Z,102019.54
2019-03-20T04:04:17.593Z,102022.02
2019-03-20T04:06:49.547Z,102017.94
2019-03-20T04:09:21.785Z,102017.94
2019-03-20T04:11:53.807Z,102018.30
2019-03-20T04:14:25.383Z,102020.66
2019-03-20T04:16:58.306Z,102014.23
2019-03-20T04:19:29.907Z,102020.91
2019-03-20T04:22:01.747Z,102023.01
2019-03-20T04:24:33.370Z,102026.58
2019-03-20T04:27:05.053Z,102032.50
2019-03-20T04:29:36.850Z,102033.11
2019-03-20T04:32:08.485Z,102032.50
2019-03-20T04:34:40.301Z,102038.64
2019-03-20T04:37:12.062Z,102036.56
2019-03-20T04:39:43.790Z,102034.45
2019-03-20T04:42:14.515Z,102038.53
2019-03-20T04:44:46.310Z,102035.95
2019-03-20T04:47:17.878Z,102042.73
2019-03-20T04:49:49.377Z,102040.98
2019-03-20T04:52:21.440Z,102042.23
2019-03-20T04:54:53.069Z,102042.59
2019-03-20T04:57:24.833Z,102034.57
2019-03-20T04:59:56.609Z,102037.42
2019-03-20T05:02:28.724Z,102023.09
2019-03-20T05:04:59.876Z,102023.09
2019-03-20T05:07:31.769Z,102038.89
2019-03-20T05:10:02.451Z,102040.31
2019-03-20T05:12:35.309Z,102037.39
2019-03-20T05:15:07.701Z,102048.23
2019-03-20T05:17:38.457Z,102053.64
2019-03-20T05:20:12.775Z,102059.67
2019-03-20T05:22:44.375Z,102052.10
2019-03-20T05:25:15.996Z,102052.75
2019-03-20T05:27:47.740Z,102059.27
2019-03-20T05:30:18.485Z,102050.03
2019-03-20T05:32:50.272Z,102047.33
2019-03-20T05:35:21.845Z,102054.21
2019-03-20T05:37:53.753Z,102058.70
2019-03-20T05:40:24.466Z,102061.03
2019-03-20T05:42:56.066Z,102074.47
2019-03-20T05:45:27.761Z,102078.64
2019-03-20T05:47:58.473Z,102079.28
2019-03-20T05:50:30.326Z,102087.51
2019-03-20T05:53:05.231Z,102087.97
2019-03-20T05:55:36.788Z,102090.53
2019-03-20T05:58:08.753Z,102087.31
2019-03-20T06:00:39.477Z,102083.90
2019-03-20T06:03:11.313Z,102096.55
2019-03-20T06:05:42.838Z,102102.07
2019-03-20T06:08:14.632Z,102105.03
2019-03-20T06:10:46.369Z,102103.38
2019-03-20T06:13:18.366Z,102103.38
2019-03-20T06:15:50.305Z,102107.89
2019-03-20T06:18:22.748Z,102106.67
2019-03-20T06:20:53.967Z,102105.92
2019-03-20T06:23:26.265Z,102111.59
2019-03-20T06:25:57.791Z,102114.75
2019-03-20T06:28:29.780Z,102115.84
2019-03-20T06:31:01.786Z,102123.03
2019-03-20T06:33:33.284Z,102129.56
2019-03-20T06:36:05.305Z,102127.59
2019-03-20T06:38:36.858Z,102129.91
2019-03-20T06:41:08.383Z,102131.39
2019-03-20T06:43:40.056Z,102130.41
2019-03-20T06:46:11.772Z,102138.69
2019-03-20T06:48:42.504Z,102139.44
2019-03-20T06:51:14.304Z,102139.55
2019-03-20T06:53:45.828Z,102146.72
2019-03-20T06:56:17.742Z,102143.00
2019-03-20T06:58:48.475Z,102141.77
2019-03-20T07:01:30.353Z,102146.56
2019-03-20T07:05:05.264Z,102146.92
2019-03-20T07:07:44.291Z,102146.52
2019-03-20T07:10:55.318Z,102142.40
2019-03-20T07:13:27.485Z,102147.11
2019-03-20T07:15:59.557Z,102150.73
2019-03-20T07:18:31.292Z,102154.45
2019-03-20T07:21:02.890Z,102154.45
2019-03-20T07:23:34.361Z,102163.92
2019-03-20T07:26:06.287Z,102164.67
2019-03-20T07:28:37.851Z,102171.02
2019-03-20T07:31:15.104Z,102169.84
2019-03-20T07:33:43.753Z,102171.09
2019-03-20T07:36:14.559Z,102174.56
2019-03-20T07:38:46.728Z,102170.61
2019-03-20T07:41:17.846Z,102170.61
2019-03-20T07:43:49.759Z,102179.14
2019-03-20T07:46:21.395Z,102172.86
2019-03-20T07:48:52.769Z,102178.79
2019-03-20T07:51:24.583Z,102181.52
2019-03-20T07:53:56.632Z,102163.08
2019-03-20T07:56:28.564Z,102177.53
2019-03-20T07:58:59.606Z,102177.53
2019-03-20T08:01:31.330Z,102191.50
2019-03-20T08:04:03.615Z,102191.50
2019-03-20T08:06:34.478Z,102191.61
2019-03-20T08:09:08.297Z,102188.30
2019-03-20T08:11:39.863Z,102191.25
2019-03-20T08:14:11.802Z,102193.83
2019-03-20T08:16:43.466Z,102196.69
2019-03-20T08:19:15.061Z,102202.50
2019-03-20T08:21:47.604Z,102199.41
2019-03-20T08:24:19.369Z,102198.91
2019-03-20T08:26:51.036Z,102198.91
2019-03-20T08:29:23.303Z,102195.97
2019-03-20T08:31:54.873Z,102202.11
2019-03-20T08:34:29.385Z,102202.86
2019-03-20T08:37:02.530Z,102200.76
2019-03-20T08:39:35.270Z,102202.76
2019-03-20T08:42:07.779Z,102202.37
2019-03-20T08:44:38.648Z,102202.87
2019-03-20T08:47:10.768Z,102207.44
2019-03-20T08:49:41.844Z,102207.44
2019-03-20T08:52:14.298Z,102212.00
2019-03-20T08:54:46.695Z,102208.93
2019-03-20T08:57:17.333Z,102205.11
2019-03-20T08:59:49.346Z,102202.39
2019-03-20T09:02:21.497Z,102199.68
2019-03-20T09:04:53.647Z,102209.18
2019-03-20T09:07:25.784Z,102212.31
2019-03-20T09:09:58.298Z,102212.31
2019-03-20T09:12:30.412Z,102212.16
2019-03-20T09:15:02.830Z,102211.78
2019-03-20T09:17:34.817Z,102212.04
2019-03-20T09:20:07.308Z,102209.83
2019-03-20T09:22:39.301Z,102214.99
2019-03-20T09:25:14.667Z,102213.64
2019-03-20T09:27:46.795Z,102223.13
2019-03-20T09:30:21.798Z,102223.13
2019-03-20T09:32:54.306Z,102229.80
2019-03-20T09:35:26.475Z,102223.37
2019-03-20T09:37:58.840Z,102223.16
2019-03-20T09:40:30.789Z,102223.16
2019-03-20T09:43:01.656Z,102225.98
2019-03-20T09:45:33.803Z,102229.19
2019-03-20T09:48:05.796Z,102235.83
2019-03-20T09:50:37.800Z,102232.74
2019-03-20T09:53:09.765Z,102225.58
2019-03-20T09:55:41.807Z,102232.63
2019-03-20T09:58:13.803Z,102231.52
2019-03-20T10:00:45.815Z,102228.66
2019-03-20T10:03:17.843Z,102232.73
2019-03-20T10:05:49.808Z,102234.72
2019-03-20T10:08:21.770Z,102240.52
2019-03-20T10:10:52.666Z,102232.26
2019-03-20T10:13:24.794Z,102230.02
2019-03-20T10:15:56.807Z,102230.02
2019-03-20T10:18:28.838Z,102228.66
2019-03-20T10:21:00.777Z,102236.93
2019-03-20T10:23:31.951Z,102233.62
2019-03-20T10:26:03.808Z,102237.67
2019-03-20T10:28:35.777Z,102231.00
2019-03-20T10:31:06.674Z,102227.78
2019-03-20T10:33:37.676Z,102229.88
2019-03-20T10:36:08.637Z,102236.30
2019-03-20T10:38:40.304Z,102228.17
2019-03-20T10:41:11.631Z,102226.18
2019-03-20T10:43:44.274Z,102223.48
2019-03-20T10:46:16.320Z,102223.48
2019-03-20T10:48:48.434Z,102230.98
2019-03-20T10:51:20.532Z,102228.00
2019-03-20T10:53:52.835Z,102204.59
2019-03-20T10:56:24.803Z,102204.59
2019-03-20T10:58:56.892Z,102224.43
2019-03-20T11:01:28.815Z,102221.86
2019-03-20T11:04:00.828Z,102226.30
2019-03-20T11:06:32.838Z,102217.52
2019-03-20T11:09:05.378Z,102216.04
2019-03-20T11:11:37.322Z,102216.52
2019-03-20T11:14:09.798Z,102216.52
2019-03-20T11:16:41.838Z,102221.95
2019-03-20T11:19:13.838Z,102229.51
2019-03-20T11:21:45.807Z,102219.74
2019-03-20T11:24:17.775Z,102214.55
2019-03-20T11:26:48.660Z,102219.74
2019-03-20T11:29:21.817Z,102214.22
2019-03-20T11:31:54.305Z,102214.22
2019-03-20T11:34:26.302Z,102208.88
2019-03-20T11:36:58.499Z,102205.30
2019-03-20T11:39:30.831Z,102201.84
2019-03-20T11:42:02.813Z,102203.34
2019-03-20T11:44:34.853Z,102200.72
2019-03-20T11:47:06.776Z,102201.08
2019-03-20T11:49:37.648Z,102205.39
2019-03-20T11:52:09.851Z,102189.35
2019-03-20T11:54:41.852Z,102189.35
2019-03-20T11:57:13.877Z,102197.67
2019-03-20T11:59:46.319Z,102200.84
2019-03-20T12:02:27.759Z,102189.48
2019-03-20T12:04:53.898Z,102188.86
2019-03-20T12:07:25.091Z,102186.78
2019-03-20T12:09:56.975Z,102183.06
2019-03-20T12:12:28.836Z,102182.82
2019-03-20T12:15:00.781Z,102182.95
2019-03-20T12:17:31.714Z,102180.80
2019-03-20T12:20:02.550Z,102170.94
2019-03-20T12:22:34.781Z,102164.88
2019-03-20T12:25:07.238Z,102164.88
2019-03-20T12:27:39.301Z,102161.66
2019-03-20T12:30:15.307Z,102163.50
2019-03-20T12:32:47.313Z,102160.16
2019-03-20T12:35:19.317Z,102159.53
2019-03-20T12:37:51.283Z,102163.34
2019-03-20T12:40:30.303Z,102161.75
2019-03-20T12:43:02.339Z,102157.80
2019-03-20T12:45:35.826Z,102156.67
2019-03-20T12:48:07.858Z,102148.64
2019-03-20T12:50:39.835Z,102142.73
2019-03-20T12:53:12.641Z,102143.31
2019-03-20T12:55:44.829Z,102136.91
2019-03-20T12:58:16.801Z,102136.91
2019-03-20T13:03:19.431Z,102136.91
2019-03-20T13:05:51.340Z,102138.41
2019-03-20T13:08:23.275Z,102132.21
2019-03-20T13:10:55.319Z,102140.72
2019-03-20T13:13:27.322Z,102133.06
2019-03-20T13:15:59.859Z,102134.16
2019-03-20T13:18:31.851Z,102137.53
2019-03-20T13:21:03.799Z,102140.60
2019-03-20T13:23:35.813Z,102139.98
2019-03-20T13:26:07.821Z,102147.05
2019-03-20T13:28:40.316Z,102148.02
2019-03-20T13:31:20.425Z,102141.84
2019-03-20T13:33:53.489Z,102140.84
2019-03-20T13:36:25.839Z,102135.05
2019-03-20T13:38:58.765Z,102135.05
2019-03-20T13:41:29.647Z,102139.44
2019-03-20T13:44:01.260Z,102136.33
2019-03-20T13:46:32.644Z,102129.77
2019-03-20T13:49:04.756Z,102134.47
2019-03-20T13:51:35.347Z,102131.91
2019-03-20T13:54:07.480Z,102137.81
2019-03-20T13:56:40.894Z,102146.08
2019-03-20T13:59:12.801Z,102146.20
2019-03-20T14:01:43.673Z,102151.41
2019-03-20T14:04:14.590Z,102146.12
2019-03-20T14:06:46.785Z,102148.06
2019-03-20T14:09:17.699Z,102148.06
2019-03-20T14:11:48.693Z,102143.98
2019-03-20T14:14:19.689Z,102136.33
2019-03-20T14:16:50.665Z,102137.19
2019-03-20T14:19:24.364Z,102126.42
2019-03-20T14:21:55.690Z,102129.14
2019-03-20T14:24:26.621Z,102125.58
2019-03-20T14:27:01.263Z,102117.07
2019-03-20T14:29:33.312Z,102117.07
2019-03-20T14:32:05.323Z,102118.27
2019-03-20T14:34:37.323Z,102111.97
2019-03-20T14:37:09.301Z,102110.62
2019-03-20T14:39:41.273Z,102112.45
2019-03-20T14:42:13.320Z,102100.72
2019-03-20T14:44:45.301Z,102108.60
2019-03-20T14:47:17.311Z,102104.41
2019-03-20T14:49:49.301Z,102102.03
2019-03-20T14:52:21.504Z,102104.05
2019-03-20T14:54:53.547Z,102109.61
2019-03-20T14:57:25.793Z,102105.02
2019-03-20T14:59:56.695Z,102098.97
2019-03-20T15:02:27.618Z,102095.52
2019-03-20T15:04:59.186Z,102099.13
2019-03-20T15:07:30.439Z,102090.63
2019-03-20T15:10:02.317Z,102090.63
2019-03-20T15:12:34.307Z,102092.53
2019-03-20T15:15:09.829Z,102091.34
2019-03-20T15:17:41.803Z,102093.30
2019-03-20T15:20:13.798Z,102092.50
2019-03-20T15:22:45.743Z,102092.97
2019-03-20T15:25:23.680Z,102096.12
2019-03-20T15:27:55.795Z,102091.39
2019-03-20T15:30:29.603Z,102091.39
2019-03-20T15:33:01.795Z,102098.06
2019-03-20T15:35:33.758Z,102098.06
2019-03-20T15:38:04.645Z,102107.80
2019-03-20T15:40:36.816Z,102088.42
2019-03-20T15:43:08.832Z,102088.42
2019-03-20T15:45:40.804Z,102083.42
2019-03-20T15:48:12.790Z,102084.69
2019-03-20T15:50:44.263Z,102081.62
2019-03-20T15:53:16.310Z,102084.59
2019-03-20T15:55:48.299Z,102086.63
2019-03-20T15:58:20.312Z,102083.90
2019-03-20T16:00:52.779Z,102066.04
2019-03-20T16:03:26.300Z,102075.72
2019-03-20T16:05:59.814Z,102077.53
2019-03-20T16:08:31.821Z,102073.45
2019-03-20T16:11:06.885Z,102071.58
2019-03-20T16:13:37.650Z,102082.70
2019-03-20T16:16:09.261Z,102073.67
2019-03-20T16:18:40.604Z,102071.70
2019-03-20T16:21:12.773Z,102062.88
2019-03-20T16:23:43.874Z,102062.88
2019-03-20T16:26:15.771Z,102079.44
2019-03-20T16:28:46.653Z,102082.12
2019-03-20T16:31:18.770Z,102085.88
2019-03-20T16:33:49.732Z,102085.88
2019-03-20T16:36:20.635Z,102088.80
2019-03-20T16:38:54.340Z,102086.88
2019-03-20T16:41:26.374Z,102086.88
2019-03-20T16:43:58.584Z,102096.77
2019-03-20T16:46:30.454Z,102069.66
2019-03-20T16:49:02.416Z,102069.66
2019-03-20T16:51:34.681Z,102086.16
2019-03-20T16:54:06.788Z,102073.05
2019-03-20T16:56:42.231Z,102073.05
2019-03-20T16:59:13.889Z,102076.82
2019-03-20T17:01:45.753Z,102073.87
2019-03-20T17:04:16.465Z,102077.05
2019-03-20T17:06:48.380Z,102074.36
2019-03-20T17:09:23.292Z,102084.05
2019-03-20T17:11:54.853Z,102087.06
2019-03-20T17:14:26.668Z,102089.78
2019-03-20T17:16:58.295Z,102094.57
2019-03-20T17:19:30.055Z,102094.57
2019-03-20T17:22:01.804Z,102094.13
2019-03-20T17:24:33.751Z,102102.83
2019-03-20T17:27:05.457Z,102098.80
2019-03-20T17:29:37.295Z,102104.91
2019-03-20T17:32:09.288Z,102094.70
2019-03-20T17:34:40.809Z,102093.40
2019-03-20T17:37:12.601Z,102094.23
2019-03-20T17:39:44.305Z,102080.47
2019-03-20T17:42:15.873Z,102080.47
2019-03-20T17:44:47.368Z,102098.25
2019-03-20T17:47:19.303Z,102104.48
2019-03-20T17:49:50.876Z,102112.13
2019-03-20T17:52:22.630Z,102108.90
2019-03-20T17:54:54.808Z,102116.22
2019-03-20T17:57:26.455Z,102116.22
2019-03-20T17:59:58.063Z,102121.36
2019-03-20T18:02:29.772Z,102122.69
2019-03-20T18:05:02.387Z,102123.02
2019-03-20T18:07:33.817Z,102114.27
2019-03-20T18:10:06.312Z,102113.05
2019-03-20T18:12:38.292Z,102117.80
2019-03-20T18:15:12.293Z,102119.50
2019-03-20T18:17:43.835Z,102121.87
2019-03-20T18:20:16.291Z,102119.58
2019-03-20T18:23:09.366Z,102131.27
2019-03-20T18:25:41.317Z,102132.07
2019-03-20T18:28:12.893Z,102133.00
2019-03-20T18:30:44.792Z,102139.81
2019-03-20T18:33:16.254Z,102138.86
2019-03-20T18:35:48.017Z,102133.32
2019-03-20T18:38:19.766Z,102146.78
2019-03-20T18:40:53.249Z,102153.78
2019-03-20T18:43:25.294Z,102149.77
2019-03-20T18:45:56.893Z,102159.58
2019-03-20T18:48:28.404Z,102155.83
2019-03-20T18:51:00.299Z,102154.02
2019-03-20T18:53:32.583Z,102155.06
2019-03-20T18:56:04.387Z,102136.08
2019-03-20T18:58:36.388Z,102136.08
2019-03-20T19:01:10.001Z,102151.05
2019-03-20T19:03:44.265Z,102157.05
2019-03-20T19:06:23.288Z,102166.77
2019-03-20T19:08:54.858Z,102161.42
2019-03-20T19:11:26.726Z,102160.27
2019-03-20T19:13:58.632Z,102162.28
2019-03-20T19:16:29.948Z,102154.89
2019-03-20T19:19:01.804Z,102163.91
2019-03-20T19:21:33.627Z,102166.36
2019-03-20T19:24:04.432Z,102172.56
2019-03-20T19:26:36.488Z,102164.91
2019-03-20T19:29:08.302Z,102170.82
2019-03-20T19:31:39.773Z,102177.08
2019-03-20T19:34:11.986Z,102169.08
2019-03-20T19:36:43.766Z,102177.92
2019-03-20T19:39:14.619Z,102173.86
2019-03-20T19:41:46.719Z,102167.09
2019-03-20T19:44:19.738Z,102167.09
2019-03-20T19:46:51.757Z,102175.60
2019-03-20T19:49:22.447Z,102178.02
2019-03-20T19:51:54.017Z,102172.30
2019-03-20T19:54:26.378Z,102177.67
2019-03-20T19:56:58.044Z,102174.98
2019-03-20T19:59:29.774Z,102168.66
2019-03-20T20:02:00.468Z,102175.33
2019-03-20T20:04:32.625Z,102172.52
2019-03-20T20:07:04.329Z,102170.99
2019-03-20T20:09:36.778Z,102170.99
2019-03-20T20:12:07.499Z,102166.18
2019-03-20T20:14:39.297Z,102170.81
2019-03-20T20:17:10.755Z,102175.02
2019-03-20T20:19:42.916Z,102176.37
2019-03-20T20:22:14.421Z,102176.34
2019-03-20T20:24:46.305Z,102181.31
2019-03-20T20:27:17.913Z,102177.47
2019-03-20T20:29:50.270Z,102179.64
2019-03-20T20:32:22.065Z,102183.02
2019-03-20T20:34:54.336Z,102183.67
2019-03-20T20:37:29.344Z,102182.62
2019-03-20T20:40:02.768Z,102187.19
2019-03-20T20:42:42.468Z,102181.54
2019-03-20T20:45:19.331Z,102176.86
2019-03-20T20:47:50.873Z,102181.35
2019-03-20T20:50:22.385Z,102182.06
2019-03-20T20:52:54.070Z,102178.75
2019-03-20T20:55:25.739Z,102176.70
2019-03-20T20:57:56.456Z,102169.73
2019-03-20T21:00:28.076Z,102175.48
2019-03-20T21:02:59.796Z,102180.42
2019-03-20T21:05:31.413Z,102184.46
2019-03-20T21:08:03.136Z,102179.21
2019-03-20T21:10:34.783Z,102190.12
2019-03-20T21:13:07.734Z,102190.35
2019-03-20T21:15:44.952Z,102192.22
2019-03-20T21:19:21.820Z,102185.72
2019-03-20T21:23:28.752Z,102183.27
2019-03-20T21:26:01.638Z,102189.64
2019-03-20T21:30:11.809Z,102184.14
2019-03-20T21:32:45.795Z,102184.14
2019-03-20T21:37:09.579Z,102192.28
2019-03-20T21:39:42.309Z,102175.41
2019-03-20T21:43:51.417Z,102175.41
2019-03-20T21:47:35.300Z,102189.33
2019-03-20T21:51:11.836Z,102196.36
2019-03-20T21:54:59.508Z,102190.86
2019-03-20T21:58:04.312Z,102200.72
2019-03-20T22:02:12.334Z,102211.11
2019-03-20T22:04:46.075Z,102209.37
2019-03-20T22:07:19.094Z,102214.94
2019-03-20T22:11:30.765Z,102210.01
2019-03-20T22:14:09.770Z,102212.61
2019-03-20T22:18:12.142Z,102216.20
2019-03-20T22:21:41.681Z,102218.77
2019-03-20T22:25:02.429Z,102223.61
2019-03-20T22:29:01.437Z,102229.66
2019-03-20T22:31:35.806Z,102226.92
2019-03-20T22:34:39.782Z,102227.44
2019-03-20T22:37:12.820Z,102231.76
2019-03-20T22:41:13.276Z,102231.88
2019-03-20T22:44:05.733Z,102232.86
2019-03-20T22:48:16.888Z,102238.30
2019-03-20T22:52:08.780Z,102244.22
2019-03-20T22:55:33.276Z,102246.31
2019-03-20T22:58:47.308Z,102250.64
2019-03-20T23:01:44.861Z,102253.98
2019-03-20T23:04:29.837Z,102257.08
2019-03-20T23:07:02.767Z,102257.82
2019-03-20T23:09:34.685Z,102266.07
2019-03-20T23:12:13.785Z,102268.80
2019-03-20T23:14:45.601Z,102272.26
2019-03-20T23:17:19.094Z,102275.33
2019-03-20T23:19:54.317Z,102275.33
2019-03-20T23:22:27.005Z,102273.86
2019-03-20T23:24:59.836Z,102278.30
2019-03-20T23:27:34.344Z,102272.12
2019-03-20T23:30:13.810Z,102278.17
2019-03-20T23:32:47.338Z,102282.02
2019-03-20T23:35:19.913Z,102278.55
2019-03-20T23:37:52.880Z,102277.31
2019-03-20T23:40:25.894Z,102277.19
2019-03-20T23:42:59.317Z,102270.52
2019-03-20T23:45:32.017Z,102264.35
2019-03-20T23:48:25.328Z,102267.80
2019-03-20T23:51:05.338Z,102268.17
2019-03-20T23:53:39.830Z,102275.97
2019-03-20T23:56:12.802Z,102273.87
2019-03-20T23:58:44.694Z,102273.38
